Time;durP1;ratioP1;P1;durP2;ratioP2;P2;SDS_P1;SDS_P2;PMS_P1;PMS_P2;Temp;Humidity;BMP_temperature;BMP_pressure;BME280_temperature;BME280_humidity;BME280_pressure;Samples;Min_cycle;Max_cycle;Signal;HPM_P1;HPM_P2
2022/11/24 00:02:11;;;;;;;15.70;7.77;;;5.30;1.00;;;;;;5072662;28;20185;-75
2022/11/24 00:04:37;;;;;;;14.10;7.40;;;5.30;1.00;;;;;;5070776;28;20308;-75
2022/11/24 00:07:03;;;;;;;12.73;6.30;;;5.30;1.00;;;;;;5072550;28;20836;-74
2022/11/24 00:09:28;;;;;;;9.53;6.63;;;5.30;1.00;;;;;;5072907;28;20397;-74
2022/11/24 00:11:54;;;;;;;11.47;7.97;;;5.30;1.00;;;;;;5072775;28;20167;-74
2022/11/24 00:14:20;;;;;;;9.53;8.10;;;5.30;1.00;;;;;;5072720;28;20184;-74
2022/11/24 00:16:46;;;;;;;11.63;7.10;;;5.30;1.00;;;;;;5076206;28;20200;-73
2022/11/24 00:19:11;;;;;;;10.27;7.53;;;5.30;1.00;;;;;;5075230;28;20182;-75
2022/11/24 00:21:37;;;;;;;16.33;7.57;;;5.30;1.00;;;;;;5076084;28;20175;-74
2022/11/24 00:24:03;;;;;;;7.90;7.20;;;5.40;1.00;;;;;;5075511;28;20449;-74
2022/11/24 00:26:32;;;;;;;9.77;7.60;;;5.40;1.00;;;;;;5075897;28;20476;-74
2022/11/24 00:29:02;;;;;;;7.67;6.67;;;5.40;1.00;;;;;;5076141;28;20435;-75
2022/11/24 00:31:34;;;;;;;11.73;6.90;;;5.40;1.00;;;;;;5076091;28;20444;-75
2022/11/24 00:34:02;;;;;;;14.73;7.33;;;5.40;1.00;;;;;;5074985;28;20404;-74
2022/11/24 00:36:30;;;;;;;9.60;7.77;;;5.40;1.00;;;;;;5075812;28;20417;-75
2022/11/24 00:38:58;;;;;;;14.80;6.70;;;5.40;1.00;;;;;;5075794;28;20457;-74
2022/11/24 00:41:25;;;;;;;9.80;6.30;;;5.40;1.00;;;;;;5058237;28;20460;-73
2022/11/24 00:43:52;;;;;;;12.37;8.10;;;5.40;1.00;;;;;;5073840;28;20420;-74
2022/11/24 00:46:18;;;;;;;12.37;9.70;;;5.40;1.00;;;;;;5075644;28;20543;-74
2022/11/24 00:48:45;;;;;;;9.03;6.47;;;5.40;1.00;;;;;;5075557;28;20881;-75
2022/11/24 00:51:13;;;;;;;8.60;6.77;;;5.40;1.00;;;;;;5075614;28;20389;-73
2022/11/24 00:53:42;;;;;;;9.80;6.20;;;5.50;1.00;;;;;;5074540;28;20927;-74
2022/11/24 00:56:09;;;;;;;9.30;6.27;;;5.40;1.00;;;;;;5074236;28;20531;-74
2022/11/24 00:58:35;;;;;;;9.13;6.00;;;5.40;1.00;;;;;;5074583;28;20451;-75
2022/11/24 01:01:20;;;;;;;7.10;6.50;;;5.40;1.00;;;;;;5075561;28;20807;-75
2022/11/24 01:03:46;;;;;;;6.77;5.60;;;5.30;1.00;;;;;;5074866;28;20765;-74
2022/11/24 01:06:15;;;;;;;9.60;6.20;;;5.30;1.00;;;;;;5075199;28;20452;-74
2022/11/24 01:08:42;;;;;;;12.27;6.80;;;5.40;1.00;;;;;;5073857;28;20770;-74
2022/11/24 01:11:17;;;;;;;10.50;6.67;;;5.40;1.00;;;;;;5073452;28;20924;-74
2022/11/24 01:13:45;;;;;;;7.23;6.53;;;5.40;1.00;;;;;;5074514;28;20404;-75
2022/11/24 01:16:19;;;;;;;8.60;7.00;;;5.40;1.00;;;;;;5075326;28;20905;-73
2022/11/24 01:18:46;;;;;;;8.70;6.60;;;5.50;1.00;;;;;;5075068;28;20404;-74
2022/11/24 01:21:12;;;;;;;13.60;6.20;;;5.40;1.00;;;;;;5073812;28;20421;-75
2022/11/24 01:23:38;;;;;;;6.93;5.87;;;5.40;1.00;;;;;;5074144;28;21282;-78
2022/11/24 01:26:06;;;;;;;7.60;6.60;;;5.50;1.00;;;;;;5074874;28;20450;-75
2022/11/24 01:28:32;;;;;;;12.60;6.90;;;5.50;1.00;;;;;;5073438;28;20420;-74
2022/11/24 01:30:59;;;;;;;6.97;6.10;;;5.50;1.00;;;;;;5074633;28;20889;-75
2022/11/24 01:33:25;;;;;;;11.63;5.57;;;5.50;1.00;;;;;;5074583;28;20405;-77
2022/11/24 01:35:51;;;;;;;9.13;7.17;;;5.50;1.00;;;;;;5074093;28;20913;-75
2022/11/24 01:38:17;;;;;;;9.70;7.53;;;5.50;1.00;;;;;;5074720;28;20466;-75
2022/11/24 01:40:43;;;;;;;7.30;6.50;;;5.40;1.00;;;;;;5073650;28;20466;-75
2022/11/24 01:43:21;;;;;;;6.93;6.33;;;5.50;1.00;;;;;;5074510;28;20897;-75
2022/11/24 01:45:47;;;;;;;6.80;6.00;;;5.40;1.00;;;;;;5073683;28;20448;-75
2022/11/24 01:48:22;;;;;;;9.10;6.80;;;5.50;1.00;;;;;;5073113;28;20755;-75
2022/11/24 01:51:01;;;;;;;8.70;6.87;;;5.40;1.00;;;;;;5074096;28;20905;-75
2022/11/24 01:53:27;;;;;;;8.60;5.60;;;5.40;1.00;;;;;;5073997;28;20519;-76
2022/11/24 01:55:53;;;;;;;10.47;6.70;;;5.40;1.00;;;;;;5073671;28;20507;-75
2022/11/24 01:58:25;;;;;;;9.90;6.63;;;5.40;1.00;;;;;;5074349;28;20522;-75
2022/11/24 02:00:52;;;;;;;8.80;6.77;;;5.30;1.00;;;;;;5073394;28;20500;-75
2022/11/24 02:03:23;;;;;;;7.47;6.43;;;5.30;1.00;;;;;;5074148;28;20906;-76
2022/11/24 02:05:57;;;;;;;6.77;6.10;;;5.30;1.00;;;;;;5071827;28;21054;-75
2022/11/24 02:08:42;;;;;;;14.47;6.20;;;5.30;1.00;;;;;;5073985;28;20491;-74
2022/11/24 02:11:08;;;;;;;8.80;5.63;;;5.30;1.00;;;;;;5072881;28;20483;-77
2022/11/24 02:13:37;;;;;;;7.63;6.90;;;5.30;1.00;;;;;;5073773;28;20412;-75
2022/11/24 02:16:07;;;;;;;7.30;6.47;;;5.40;1.00;;;;;;5072637;28;20459;-78
2022/11/24 02:18:33;;;;;;;6.07;5.47;;;5.30;1.00;;;;;;5074067;28;20409;-78
2022/11/24 02:21:00;;;;;;;8.47;6.33;;;5.30;1.00;;;;;;5072588;28;20416;-77
2022/11/24 02:23:53;;;;;;;9.33;7.10;;;5.30;1.00;;;;;;5073403;28;20754;-77
2022/11/24 02:26:38;;;;;;;9.70;6.07;;;5.20;1.00;;;;;;5073639;28;20860;-72
2022/11/24 02:29:03;;;;;;;11.73;6.80;;;5.20;1.00;;;;;;5072838;28;20423;-77
2022/11/24 02:31:29;;;;;;;8.03;7.23;;;5.20;1.00;;;;;;5073707;28;20403;-76
2022/11/24 02:33:55;;;;;;;10.50;6.70;;;5.20;1.00;;;;;;5071817;28;20645;-78
2022/11/24 02:36:21;;;;;;;9.90;6.47;;;5.20;1.00;;;;;;5073289;28;20198;-77
2022/11/24 02:38:50;;;;;;;9.00;6.67;;;5.20;1.00;;;;;;5073639;28;20734;-73
2022/11/24 02:41:19;;;;;;;7.73;6.40;;;5.20;1.00;;;;;;5072106;28;20179;-73
2022/11/24 02:43:54;;;;;;;12.00;8.40;;;5.30;1.00;;;;;;5072817;28;20885;-78
2022/11/24 02:46:20;;;;;;;11.13;6.33;;;5.30;1.00;;;;;;5073579;28;20461;-72
2022/11/24 02:48:45;;;;;;;7.87;6.73;;;5.30;1.00;;;;;;5073539;28;20881;-77
2022/11/24 02:51:11;;;;;;;6.40;5.80;;;5.30;1.00;;;;;;5073454;28;20904;-73
2022/11/24 02:53:37;;;;;;;11.90;6.97;;;5.30;1.00;;;;;;5072703;28;20296;-78
2022/11/24 02:56:03;;;;;;;8.47;6.43;;;5.40;1.00;;;;;;5072069;28;20902;-73
2022/11/24 02:58:29;;;;;;;8.40;6.73;;;5.40;1.00;;;;;;5072013;28;20192;-74
2022/11/24 03:00:56;;;;;;;11.77;7.53;;;5.40;1.00;;;;;;5071906;28;20414;-78
2022/11/24 03:03:22;;;;;;;7.50;6.80;;;5.40;1.00;;;;;;5073458;28;20165;-73
2022/11/24 03:05:48;;;;;;;8.07;7.23;;;5.40;1.00;;;;;;5072566;28;20459;-73
2022/11/24 03:08:13;;;;;;;13.03;7.43;;;5.40;1.00;;;;;;5073757;28;20438;-78
2022/11/24 03:10:39;;;;;;;7.43;6.07;;;5.40;1.00;;;;;;5073295;28;20415;-78
2022/11/24 03:13:05;;;;;;;7.50;6.70;;;5.50;1.00;;;;;;5073416;28;20677;-71
2022/11/24 03:15:31;;;;;;;9.93;7.10;;;5.40;1.00;;;;;;5072576;28;20182;-73
2022/11/24 03:17:57;;;;;;;7.97;6.93;;;5.40;1.00;;;;;;5072817;28;20404;-78
2022/11/24 03:20:23;;;;;;;13.60;6.73;;;5.40;1.00;;;;;;5073322;28;20173;-77
2022/11/24 03:22:49;;;;;;;11.10;6.17;;;5.40;1.00;;;;;;5072241;28;20426;-78
2022/11/24 03:25:15;;;;;;;12.07;6.77;;;5.40;1.00;;;;;;5072597;28;20398;-77
2022/11/24 03:27:41;;;;;;;11.13;8.07;;;5.50;1.00;;;;;;5072963;28;20204;-78
2022/11/24 03:30:07;;;;;;;8.20;6.80;;;5.50;1.00;;;;;;5073059;28;20495;-73
2022/11/24 03:32:33;;;;;;;8.97;6.83;;;5.50;1.00;;;;;;5071857;28;20178;-72
2022/11/24 03:34:59;;;;;;;6.93;6.33;;;5.60;1.00;;;;;;5071965;28;20811;-76
2022/11/24 03:37:25;;;;;;;14.30;7.40;;;5.60;1.00;;;;;;5071688;28;20660;-73
2022/11/24 03:39:51;;;;;;;9.00;7.30;;;5.60;1.00;;;;;;5073008;28;20483;-77
2022/11/24 03:42:17;;;;;;;10.30;7.10;;;5.60;1.00;;;;;;5073078;28;20198;-72
2022/11/24 03:44:42;;;;;;;8.30;7.60;;;5.60;1.00;;;;;;5072444;28;20173;-77
2022/11/24 03:47:10;;;;;;;14.13;7.13;;;5.60;1.00;;;;;;5072776;28;20209;-77
2022/11/24 03:49:36;;;;;;;11.73;6.47;;;5.60;1.00;;;;;;5075835;28;20622;-71
2022/11/24 03:52:02;;;;;;;10.73;6.67;;;5.60;1.00;;;;;;5076267;28;20404;-73
2022/11/24 03:54:27;;;;;;;10.60;6.87;;;5.60;1.00;;;;;;5075987;28;20162;-77
2022/11/24 03:56:53;;;;;;;10.77;8.53;;;5.70;1.00;;;;;;5076586;28;20428;-72
2022/11/24 03:59:19;;;;;;;10.37;7.80;;;5.60;1.00;;;;;;5076734;28;20241;-71
2022/11/24 04:01:45;;;;;;;10.23;7.17;;;5.70;1.00;;;;;;5076565;28;20163;-71
2022/11/24 04:04:11;;;;;;;12.70;7.30;;;5.70;1.00;;;;;;5075982;28;20171;-77
2022/11/24 04:06:38;;;;;;;9.37;8.17;;;5.60;1.00;;;;;;5076132;28;20202;-72
2022/11/24 04:09:04;;;;;;;14.37;7.37;;;5.70;1.00;;;;;;5075972;28;20421;-77
2022/11/24 04:14:14;;;;;;;11.97;7.67;;;5.70;1.00;;;;;;5075712;28;20228;-76
2022/11/24 04:16:40;;;;;;;13.73;8.20;;;5.80;1.00;;;;;;5076212;28;20444;-77
2022/11/24 04:19:05;;;;;;;7.17;6.47;;;5.80;1.00;;;;;;5076353;28;20166;-77
2022/11/24 04:21:31;;;;;;;13.03;6.80;;;5.70;1.00;;;;;;5076424;28;20401;-72
2022/11/24 04:23:57;;;;;;;11.00;7.17;;;5.80;1.00;;;;;;5075633;28;20212;-76
2022/11/24 04:26:22;;;;;;;9.47;7.50;;;5.80;1.00;;;;;;5075550;28;20198;-72
2022/11/24 04:28:48;;;;;;;13.30;6.93;;;5.80;1.00;;;;;;5075987;28;20162;-71
2022/11/24 04:31:14;;;;;;;7.47;6.13;;;5.80;1.00;;;;;;5076176;28;20174;-71
2022/11/24 04:33:40;;;;;;;7.67;5.90;;;5.80;1.00;;;;;;5074075;28;20508;-77
2022/11/24 04:36:06;;;;;;;9.67;7.60;;;5.80;1.00;;;;;;5075841;28;20190;-71
2022/11/24 04:38:31;;;;;;;10.97;8.03;;;5.80;1.00;;;;;;5074590;28;20166;-77
2022/11/24 04:41:02;;;;;;;9.13;6.80;;;5.80;1.00;;;;;;5074562;28;20416;-77
2022/11/24 04:43:28;;;;;;;11.80;7.90;;;5.80;1.00;;;;;;5075455;28;20555;-74
2022/11/24 04:45:54;;;;;;;10.83;7.33;;;5.90;1.00;;;;;;5074074;28;20460;-76
2022/11/24 04:48:20;;;;;;;11.97;6.97;;;5.90;1.00;;;;;;5075651;28;20405;-77
2022/11/24 04:50:46;;;;;;;11.40;7.33;;;6.00;1.00;;;;;;5075510;28;20389;-77
2022/11/24 04:53:12;;;;;;;11.73;7.60;;;5.90;1.00;;;;;;5075972;28;20393;-72
2022/11/24 04:55:39;;;;;;;15.93;8.73;;;5.90;1.00;;;;;;5074858;28;20404;-77
2022/11/24 04:58:09;;;;;;;8.77;6.50;;;5.90;1.00;;;;;;5075629;28;20164;-76
2022/11/24 05:00:35;;;;;;;12.03;7.93;;;5.90;1.00;;;;;;5075088;28;20436;-76
2022/11/24 05:03:01;;;;;;;9.23;8.20;;;5.90;1.00;;;;;;5075409;28;20436;-76
2022/11/24 05:05:26;;;;;;;8.47;6.60;;;5.90;1.00;;;;;;5074608;28;20429;-72
2022/11/24 05:07:52;;;;;;;11.07;7.37;;;6.00;1.00;;;;;;5074071;28;20529;-72
2022/11/24 05:10:36;;;;;;;7.67;6.27;;;6.00;1.00;;;;;;5075506;28;20166;-71
2022/11/24 05:13:05;;;;;;;8.60;7.70;;;6.10;1.00;;;;;;5075349;28;20173;-76
2022/11/24 05:15:32;;;;;;;10.70;7.17;;;6.10;1.00;;;;;;5073217;28;20437;-76
2022/11/24 05:17:57;;;;;;;13.13;6.97;;;6.10;1.00;;;;;;5075212;28;20754;-72
2022/11/24 05:20:24;;;;;;;12.30;8.17;;;6.10;1.00;;;;;;5074896;28;20397;-76
2022/11/24 05:22:50;;;;;;;12.90;7.83;;;6.10;1.00;;;;;;5074856;28;20412;-73
2022/11/24 05:25:16;;;;;;;11.57;7.60;;;6.10;1.00;;;;;;5074412;28;20408;-76
2022/11/24 05:27:42;;;;;;;11.03;8.10;;;6.10;1.00;;;;;;5073515;28;20205;-76
2022/11/24 05:30:08;;;;;;;8.70;6.73;;;6.10;1.00;;;;;;5074919;28;20193;-72
2022/11/24 05:32:34;;;;;;;13.20;7.13;;;6.00;1.00;;;;;;5074926;28;20420;-72
2022/11/24 05:35:01;;;;;;;11.53;8.60;;;6.00;1.00;;;;;;5074114;28;20970;-73
2022/11/24 05:37:30;;;;;;;11.00;7.43;;;6.00;1.00;;;;;;5074628;28;20425;-76
2022/11/24 05:39:55;;;;;;;9.67;7.63;;;6.00;1.00;;;;;;5073238;28;20439;-76
2022/11/24 05:42:39;;;;;;;10.20;7.90;;;6.00;1.00;;;;;;5074722;28;20401;-72
2022/11/24 05:45:13;;;;;;;9.70;7.60;;;6.10;1.00;;;;;;5073870;28;20627;-73
2022/11/24 05:47:40;;;;;;;12.67;8.47;;;6.10;1.00;;;;;;5074708;28;20859;-72
2022/11/24 05:50:08;;;;;;;7.53;6.63;;;6.10;1.00;;;;;;5074675;28;20389;-75
2022/11/24 05:52:34;;;;;;;9.57;7.70;;;6.10;1.00;;;;;;5073061;28;20408;-76
2022/11/24 05:55:00;;;;;;;12.07;8.17;;;6.10;1.00;;;;;;5072217;28;20405;-73
2022/11/24 05:57:26;;;;;;;9.90;7.90;;;6.10;1.00;;;;;;5073719;28;20498;-72
2022/11/24 05:59:51;;;;;;;12.90;7.90;;;6.10;1.00;;;;;;5074609;28;20684;-71
2022/11/24 06:02:18;;;;;;;14.53;8.20;;;6.10;1.00;;;;;;5074432;28;20293;-71
2022/11/24 06:04:43;;;;;;;9.07;7.73;;;6.10;1.00;;;;;;5073276;28;20169;-71
2022/11/24 06:07:11;;;;;;;14.20;8.47;;;6.10;1.00;;;;;;5074023;28;20464;-76
2022/11/24 06:09:38;;;;;;;10.37;9.17;;;6.20;1.00;;;;;;5074203;28;20158;-71
2022/11/24 06:12:06;;;;;;;12.67;7.83;;;6.20;1.00;;;;;;5072165;28;20400;-70
2022/11/24 06:14:32;;;;;;;10.80;7.67;;;6.20;1.00;;;;;;5073253;28;20397;-72
2022/11/24 06:16:58;;;;;;;11.90;8.93;;;6.20;1.00;;;;;;5072376;28;20775;-71
2022/11/24 06:19:24;;;;;;;9.67;7.30;;;6.20;1.00;;;;;;5073918;28;20416;-72
2022/11/24 06:21:49;;;;;;;12.30;8.10;;;6.20;1.00;;;;;;5074093;28;20885;-71
2022/11/24 06:24:15;;;;;;;8.40;7.40;;;6.20;1.00;;;;;;5071835;28;20194;-71
2022/11/24 06:26:41;;;;;;;11.10;7.87;;;6.20;1.00;;;;;;5073794;28;20198;-75
2022/11/24 06:29:07;;;;;;;11.77;8.47;;;6.30;1.00;;;;;;5073805;28;20189;-71
2022/11/24 06:31:32;;;;;;;14.90;7.87;;;6.30;1.00;;;;;;5073176;28;20263;-76
2022/11/24 06:33:59;;;;;;;15.30;10.10;;;6.30;1.00;;;;;;5072799;28;20404;-72
2022/11/24 06:36:26;;;;;;;12.17;8.17;;;6.30;1.00;;;;;;5072275;28;20218;-72
2022/11/24 06:38:52;;;;;;;14.27;8.80;;;6.30;1.00;;;;;;5072325;28;20415;-75
2022/11/24 06:41:18;;;;;;;9.23;7.30;;;6.30;1.00;;;;;;5072287;28;20436;-75
2022/11/24 06:43:44;;;;;;;14.23;9.03;;;6.30;1.00;;;;;;5072528;28;20761;-77
2022/11/24 06:46:11;;;;;;;11.50;8.50;;;6.30;1.00;;;;;;5073384;28;20497;-77
2022/11/24 06:48:37;;;;;;;15.50;8.50;;;6.30;1.00;;;;;;5073744;28;20396;-75
2022/11/24 06:51:05;;;;;;;14.73;8.80;;;6.40;1.00;;;;;;5073295;28;20425;-75
2022/11/24 06:53:36;;;;;;;12.77;9.00;;;6.40;1.00;;;;;;5072255;28;20398;-72
2022/11/24 06:56:04;;;;;;;18.00;9.80;;;6.40;1.00;;;;;;5073197;28;20395;-71
2022/11/24 06:58:30;;;;;;;15.27;9.00;;;6.40;1.00;;;;;;5073419;28;20438;-75
2022/11/24 07:00:56;;;;;;;17.57;10.27;;;6.40;1.00;;;;;;5072121;28;20401;-75
2022/11/24 07:03:22;;;;;;;11.87;10.03;;;6.40;1.00;;;;;;5073222;28;20539;-75
2022/11/24 07:05:47;;;;;;;17.83;9.90;;;6.40;1.00;;;;;;5071861;28;20206;-72
2022/11/24 07:08:13;;;;;;;13.20;9.23;;;6.40;1.00;;;;;;5073507;28;20411;-75
2022/11/24 07:10:39;;;;;;;13.20;8.70;;;6.30;1.00;;;;;;5073369;28;20253;-71
2022/11/24 07:13:08;;;;;;;10.87;8.13;;;6.40;1.00;;;;;;5072059;28;20459;-71
2022/11/24 07:15:34;;;;;;;12.47;8.47;;;6.40;1.00;;;;;;5072245;28;20189;-75
2022/11/24 07:18:00;;;;;;;15.80;9.23;;;6.40;1.00;;;;;;5073269;28;20392;-73
2022/11/24 07:20:25;;;;;;;21.53;8.80;;;6.40;1.00;;;;;;5073244;28;20404;-75
2022/11/24 07:22:56;;;;;;;13.80;8.87;;;6.40;1.00;;;;;;5074541;28;20166;-76
2022/11/24 07:25:24;;;;;;;10.83;9.20;;;6.40;1.00;;;;;;5075288;28;20577;-72
2022/11/24 07:27:58;;;;;;;16.00;8.73;;;6.40;1.00;;;;;;5075790;28;20444;-75
2022/11/24 07:30:24;;;;;;;14.27;8.77;;;6.40;1.00;;;;;;5077434;28;20947;-72
2022/11/24 07:32:50;;;;;;;18.33;8.73;;;6.40;1.00;;;;;;5077221;28;20475;-73
2022/11/24 07:35:16;;;;;;;17.43;8.60;;;6.50;1.00;;;;;;5076274;28;20547;-75
2022/11/24 07:37:42;;;;;;;9.37;8.03;;;6.50;1.00;;;;;;5077059;28;20190;-74
2022/11/24 07:40:09;;;;;;;15.27;10.17;;;6.50;1.00;;;;;;5076483;28;20400;-73
2022/11/24 07:42:35;;;;;;;12.67;8.47;;;6.50;1.00;;;;;;5075982;28;20416;-73
2022/11/24 07:45:01;;;;;;;14.17;9.70;;;6.50;1.00;;;;;;5076096;28;20405;-72
2022/11/24 07:47:27;;;;;;;16.83;8.97;;;6.60;1.00;;;;;;5076645;28;20194;-73
2022/11/24 07:49:52;;;;;;;13.70;9.40;;;6.60;1.00;;;;;;5076769;28;20431;-74
2022/11/24 07:52:18;;;;;;;14.60;9.53;;;6.60;1.00;;;;;;5076229;28;20393;-75
2022/11/24 07:54:44;;;;;;;12.83;9.43;;;6.60;1.00;;;;;;5074959;28;20220;-76
2022/11/24 07:57:09;;;;;;;17.43;8.93;;;6.60;1.00;;;;;;5075099;28;20198;-75
2022/11/24 07:59:35;;;;;;;12.20;8.90;;;6.50;1.00;;;;;;5075808;28;20188;-76
2022/11/24 08:02:04;;;;;;;14.53;8.70;;;6.60;1.00;;;;;;5075310;28;20170;-75
2022/11/24 08:04:30;;;;;;;18.03;9.70;;;6.60;1.00;;;;;;5074187;28;20170;-75
2022/11/24 08:06:55;;;;;;;11.67;8.80;;;6.70;1.00;;;;;;5075240;28;20471;-72
2022/11/24 08:09:21;;;;;;;16.57;8.67;;;6.70;1.00;;;;;;5075691;28;20701;-75
2022/11/24 08:11:47;;;;;;;14.50;9.90;;;6.70;1.00;;;;;;5075221;28;20166;-72
2022/11/24 08:14:12;;;;;;;18.30;9.57;;;6.60;1.00;;;;;;5075378;28;20641;-73
2022/11/24 08:16:38;;;;;;;11.70;9.60;;;6.60;1.00;;;;;;5075654;28;20195;-75
2022/11/24 08:19:04;;;;;;;15.20;9.40;;;6.70;1.00;;;;;;5076290;28;20174;-75
2022/11/24 08:21:31;;;;;;;14.30;8.57;;;6.70;1.00;;;;;;5076384;28;20166;-75
2022/11/24 08:23:57;;;;;;;10.53;8.97;;;6.70;1.00;;;;;;5075331;28;20162;-75
2022/11/24 08:26:24;;;;;;;14.00;8.77;;;6.70;1.00;;;;;;5075976;28;20473;-75
2022/11/24 08:28:54;;;;;;;10.07;8.47;;;6.70;1.00;;;;;;5076231;28;20848;-72
2022/11/24 08:31:19;;;;;;;12.07;9.47;;;6.70;1.00;;;;;;5076042;28;20401;-74
2022/11/24 08:33:46;;;;;;;13.27;9.37;;;6.80;1.00;;;;;;5074430;28;20405;-76
2022/11/24 08:36:15;;;;;;;18.03;9.53;;;6.80;1.00;;;;;;5075838;28;20261;-73
2022/11/24 08:38:44;;;;;;;14.23;9.50;;;6.90;1.00;;;;;;5075966;28;20400;-75
2022/11/24 08:41:12;;;;;;;14.17;9.50;;;6.90;1.00;;;;;;5076059;28;20789;-73
2022/11/24 08:43:38;;;;;;;13.53;9.80;;;6.90;1.00;;;;;;5075201;28;20770;-73
2022/11/24 08:46:07;;;;;;;15.00;9.13;;;7.00;1.00;;;;;;5074649;28;20535;-72
2022/11/24 08:48:33;;;;;;;19.43;15.57;;;7.00;1.00;;;;;;5074671;28;20423;-76
2022/11/24 08:51:06;;;;;;;24.07;13.60;;;7.00;1.00;;;;;;5075254;28;20404;-73
2022/11/24 08:53:32;;;;;;;13.80;12.37;;;7.10;1.00;;;;;;5075565;28;20401;-74
2022/11/24 08:56:02;;;;;;;19.67;13.80;;;7.10;1.00;;;;;;5075119;28;20417;-75
2022/11/24 08:58:29;;;;;;;18.77;12.20;;;7.10;1.00;;;;;;5074475;28;20765;-73
2022/11/24 09:00:55;;;;;;;12.80;8.73;;;7.10;1.00;;;;;;5075434;28;20404;-75
2022/11/24 09:03:20;;;;;;;21.07;13.43;;;7.10;1.00;;;;;;5074337;28;20423;-73
2022/11/24 09:05:46;;;;;;;15.07;10.27;;;7.20;1.00;;;;;;5074615;28;20936;-73
2022/11/24 09:08:12;;;;;;;14.77;10.73;;;7.20;1.00;;;;;;5073934;28;20237;-73
2022/11/24 09:10:37;;;;;;;25.53;17.47;;;7.20;1.00;;;;;;5074011;28;20171;-76
2022/11/24 09:13:03;;;;;;;13.50;10.50;;;7.20;1.00;;;;;;5073883;28;20170;-75
2022/11/24 09:15:29;;;;;;;15.67;9.27;;;7.20;1.00;;;;;;5073531;28;20408;-76
2022/11/24 09:17:56;;;;;;;20.13;10.33;;;7.20;1.00;;;;;;5074136;28;20499;-76
2022/11/24 09:20:22;;;;;;;10.53;8.50;;;7.20;1.00;;;;;;5075262;28;20177;-73
2022/11/24 09:22:48;;;;;;;17.30;9.63;;;7.20;1.00;;;;;;5075164;28;20400;-75
2022/11/24 09:25:13;;;;;;;10.47;8.30;;;7.30;1.00;;;;;;5073985;28;20223;-73
2022/11/24 09:27:39;;;;;;;15.50;9.60;;;7.40;1.00;;;;;;5074851;28;20225;-74
2022/11/24 09:30:06;;;;;;;16.57;8.70;;;7.40;1.00;;;;;;5075117;28;20174;-75
2022/11/24 09:32:31;;;;;;;13.57;10.40;;;7.40;1.00;;;;;;5075099;28;20163;-73
2022/11/24 09:34:57;;;;;;;11.80;8.40;;;7.40;1.00;;;;;;5073121;28;20414;-75
2022/11/24 09:37:23;;;;;;;8.50;7.70;;;7.40;1.00;;;;;;5073675;28;20867;-75
2022/11/24 09:39:49;;;;;;;14.83;9.40;;;7.50;1.00;;;;;;5074835;28;20213;-74
2022/11/24 09:42:36;;;;;;;14.50;10.10;;;7.60;1.00;;;;;;5072902;28;20178;-75
2022/11/24 09:45:14;;;;;;;14.13;9.83;;;7.60;1.00;;;;;;5073825;28;20174;-75
2022/11/24 09:48:02;;;;;;;12.17;9.00;;;7.60;1.00;;;;;;5073629;28;20490;-75
2022/11/24 09:50:37;;;;;;;12.83;8.90;;;7.60;1.00;;;;;;5074543;28;20440;-72
2022/11/24 09:53:14;;;;;;;9.90;8.47;;;7.60;1.00;;;;;;5074406;28;20400;-76
2022/11/24 09:55:47;;;;;;;10.87;8.47;;;7.70;1.00;;;;;;5073730;28;20390;-75
2022/11/24 09:58:41;;;;;;;13.33;9.63;;;7.70;1.00;;;;;;5072901;28;20399;-73
2022/11/24 10:01:14;;;;;;;10.67;8.13;;;7.80;1.00;;;;;;5074145;28;20380;-73
2022/11/24 10:03:42;;;;;;;16.17;7.10;;;7.90;1.00;;;;;;5072340;28;20420;-75
2022/11/24 10:06:22;;;;;;;14.43;7.40;;;7.90;1.00;;;;;;5073916;28;20495;-72
2022/11/24 10:09:03;;;;;;;14.57;9.10;;;8.00;1.00;;;;;;5073973;28;20377;-72
2022/11/24 10:11:57;;;;;;;14.10;8.73;;;8.00;1.00;;;;;;5072722;28;20408;-73
2022/11/24 10:14:40;;;;;;;11.30;8.07;;;8.00;1.00;;;;;;5073324;28;20812;-74
2022/11/24 10:17:15;;;;;;;17.20;8.23;;;8.10;1.00;;;;;;5072166;28;20496;-74
2022/11/24 10:20:02;;;;;;;12.70;8.00;;;8.10;1.00;;;;;;5073867;28;20389;-74
2022/11/24 10:22:49;;;;;;;17.50;8.70;;;8.10;1.00;;;;;;5073996;28;20803;-74
2022/11/24 10:25:23;;;;;;;11.20;8.03;;;8.10;1.00;;;;;;5072333;28;20409;-75
2022/11/24 10:28:03;;;;;;;19.90;8.93;;;8.10;1.00;;;;;;5073539;28;20946;-75
2022/11/24 10:30:29;;;;;;;11.70;8.10;;;8.20;1.00;;;;;;5072578;28;20432;-75
2022/11/24 10:33:02;;;;;;;12.37;9.00;;;8.20;1.00;;;;;;5071895;28;20409;-73
2022/11/24 10:36:04;;;;;;;18.40;10.07;;;8.20;1.00;;;;;;5072197;28;20459;-73
2022/11/24 10:38:50;;;;;;;18.20;9.40;;;8.20;1.00;;;;;;5056110;28;20409;-74
2022/11/24 10:41:22;;;;;;;9.00;8.00;;;8.20;1.00;;;;;;5072394;28;20894;-75
2022/11/24 10:43:50;;;;;;;13.73;8.93;;;8.20;1.00;;;;;;5071674;28;20489;-75
2022/11/24 10:46:23;;;;;;;19.30;9.20;;;8.30;1.00;;;;;;5073517;28;20452;-74
2022/11/24 10:48:57;;;;;;;16.60;8.57;;;8.30;1.00;;;;;;5073558;28;20405;-75
2022/11/24 10:51:51;;;;;;;13.97;8.77;;;8.30;1.00;;;;;;5073555;28;20400;-74
2022/11/24 10:54:20;;;;;;;14.70;8.17;;;8.30;1.00;;;;;;5071117;28;20770;-75
2022/11/24 10:56:49;;;;;;;14.10;9.37;;;8.30;1.00;;;;;;5073177;28;20414;-75
2022/11/24 10:59:24;;;;;;;15.63;8.33;;;8.30;1.00;;;;;;5072119;28;20387;-74
2022/11/24 11:01:51;;;;;;;13.53;8.40;;;8.30;1.00;;;;;;5072268;28;20412;-74
2022/11/24 11:04:26;;;;;;;11.37;8.37;;;8.20;1.00;;;;;;5072721;28;20380;-75
2022/11/24 11:06:52;;;;;;;14.80;7.83;;;8.30;1.00;;;;;;5071841;28;20463;-73
2022/11/24 11:09:21;;;;;;;14.27;8.67;;;8.30;1.00;;;;;;5073215;28;20442;-75
2022/11/24 11:11:47;;;;;;;18.37;8.90;;;8.30;1.00;;;;;;5072335;28;20890;-75
2022/11/24 11:14:29;;;;;;;18.97;11.17;;;8.40;1.00;;;;;;5073023;28;20395;-74
2022/11/24 11:16:58;;;;;;;24.03;11.20;;;8.40;1.00;;;;;;5072418;28;20435;-74
2022/11/24 11:19:42;;;;;;;14.30;9.97;;;8.50;1.00;;;;;;5073389;28;20396;-75
2022/11/24 11:22:24;;;;;;;26.17;13.73;;;8.60;1.00;;;;;;5073313;28;20489;-74
2022/11/24 11:25:04;;;;;;;21.37;12.30;;;8.60;1.00;;;;;;5072629;28;20411;-75
2022/11/24 11:27:30;;;;;;;30.30;11.93;;;8.60;1.00;;;;;;5071874;28;20431;-75
2022/11/24 11:30:20;;;;;;;10.60;9.50;;;8.60;1.00;;;;;;5072305;28;20414;-75
2022/11/24 11:32:58;;;;;;;14.83;10.43;;;8.60;1.00;;;;;;5073392;28;20234;-74
2022/11/24 11:35:26;;;;;;;19.40;9.60;;;8.70;1.00;;;;;;5071232;28;20820;-73
2022/11/24 11:38:00;;;;;;;20.47;11.17;;;8.70;1.00;;;;;;5072930;28;20408;-75
2022/11/24 11:40:29;;;;;;;21.23;12.03;;;8.70;1.00;;;;;;5073032;28;20387;-74
2022/11/24 11:43:15;;;;;;;11.10;8.23;;;8.70;1.00;;;;;;5073109;28;20406;-74
2022/11/24 11:45:45;;;;;;;16.03;9.77;;;8.70;1.00;;;;;;5071618;28;20463;-76
2022/11/24 11:48:28;;;;;;;26.40;11.20;;;8.70;1.00;;;;;;5072715;28;20466;-75
2022/11/24 11:51:19;;;;;;;17.03;10.07;;;8.60;1.00;;;;;;5072948;28;20413;-76
2022/11/24 11:53:54;;;;;;;18.67;10.53;;;8.70;1.00;;;;;;5071186;28;20388;-75
2022/11/24 11:56:33;;;;;;;19.70;9.80;;;8.70;1.00;;;;;;5071700;28;20498;-74
2022/11/24 11:59:25;;;;;;;20.07;11.23;;;8.80;1.00;;;;;;5072938;28;20375;-75
2022/11/24 12:02:20;;;;;;;20.03;9.50;;;8.80;1.00;;;;;;5072744;28;20928;-74
2022/11/24 12:04:58;;;;;;;19.20;10.80;;;8.70;1.00;;;;;;5039410;28;20428;-73
2022/11/24 12:07:45;;;;;;;17.63;11.13;;;8.70;1.00;;;;;;5072645;28;20440;-74
2022/11/24 12:10:31;;;;;;;20.87;11.23;;;8.80;1.00;;;;;;5073376;28;20781;-75
2022/11/24 12:13:06;;;;;;;12.80;9.90;;;8.80;1.00;;;;;;5076413;28;20402;-74
2022/11/24 12:15:39;;;;;;;13.83;9.40;;;8.80;1.00;;;;;;5075630;28;20405;-74
2022/11/24 12:18:48;;;;;;;17.27;11.93;;;8.90;1.00;;;;;;5076262;28;20415;-75
2022/11/24 12:21:27;;;;;;;18.87;10.13;;;8.90;1.00;;;;;;5076478;28;20752;-75
2022/11/24 12:24:10;;;;;;;17.13;9.60;;;9.00;1.00;;;;;;5073872;28;20393;-74
2022/11/24 12:27:02;;;;;;;16.30;7.73;;;9.00;1.00;;;;;;5074698;28;20989;-74
2022/11/24 12:29:48;;;;;;;11.10;8.47;;;9.00;1.00;;;;;;5076264;28;20410;-74
2022/11/24 12:32:29;;;;;;;20.33;10.20;;;8.90;1.00;;;;;;5076128;28;20413;-74
2022/11/24 12:35:07;;;;;;;13.50;8.80;;;8.80;1.00;;;;;;5075371;28;20380;-74
2022/11/24 12:38:05;;;;;;;14.50;9.20;;;8.80;1.00;;;;;;5075959;28;20459;-74
2022/11/24 12:40:57;;;;;;;9.57;8.20;;;8.80;1.00;;;;;;5075257;28;20416;-74
2022/11/24 12:43:35;;;;;;;15.13;8.47;;;8.80;1.00;;;;;;5075780;28;20936;-73
2022/11/24 12:46:12;;;;;;;20.07;9.43;;;8.80;1.00;;;;;;5074448;28;20767;-73
2022/11/24 12:48:47;;;;;;;15.67;9.07;;;8.90;1.00;;;;;;5075773;28;20402;-74
2022/11/24 12:51:18;;;;;;;15.90;9.13;;;8.90;1.00;;;;;;5074512;28;20425;-73
2022/11/24 12:53:46;;;;;;;24.63;10.53;;;8.90;1.00;;;;;;5074975;28;20421;-74
2022/11/24 12:56:15;;;;;;;19.67;9.30;;;9.00;1.00;;;;;;5074501;28;20811;-74
2022/11/24 12:58:51;;;;;;;12.83;8.57;;;8.90;1.00;;;;;;5074766;28;20423;-75
2022/11/24 13:01:39;;;;;;;18.10;9.07;;;8.90;1.00;;;;;;5075580;28;20438;-74
2022/11/24 13:04:52;;;;;;;10.03;8.37;;;8.90;1.00;;;;;;5074791;28;20464;-74
2022/11/24 13:07:34;;;;;;;11.80;7.93;;;9.00;1.00;;;;;;5016591;28;20523;-74
2022/11/24 13:10:24;;;;;;;31.80;10.10;;;9.00;1.00;;;;;;5074740;28;20426;-74
2022/11/24 13:13:02;;;;;;;13.47;8.20;;;9.00;1.00;;;;;;5074253;28;20501;-73
2022/11/24 13:15:29;;;;;;;24.50;12.03;;;9.00;1.00;;;;;;5074556;28;20407;-75
2022/11/24 13:17:56;;;;;;;23.97;10.40;;;9.00;1.00;;;;;;5074519;28;20387;-74